createdAt,value
2016-05-31T00:00:17.937Z,0
2016-05-31T00:01:18.127Z,0
2016-05-31T00:02:18.145Z,0
2016-05-31T00:03:18.023Z,0
2016-05-31T00:04:18.197Z,0
2016-05-31T00:05:18.232Z,0
2016-05-31T00:06:18.250Z,0
2016-05-31T00:07:17.987Z,0
2016-05-31T00:08:18.333Z,0
2016-05-31T00:09:18.336Z,0
2016-05-31T00:10:18.371Z,0
2016-05-31T00:11:18.248Z,0
2016-05-31T00:12:18.422Z,0
2016-05-31T00:13:18.456Z,0
2016-05-31T00:14:18.490Z,0
2016-05-31T00:15:18.509Z,0
2016-05-31T00:16:18.387Z,0
2016-05-31T00:17:18.576Z,0
2016-05-31T00:18:18.453Z,0
2016-05-31T00:19:18.645Z,0
2016-05-31T00:20:18.648Z,0
2016-05-31T00:21:18.681Z,0
2016-05-31T00:22:19.058Z,0
2016-05-31T00:23:19.701Z,0
2016-05-31T00:24:18.766Z,0
2016-05-31T00:25:18.786Z,0
2016-05-31T00:26:18.834Z,0
2016-05-31T00:27:18.853Z,0
2016-05-31T00:28:18.886Z,0
2016-05-31T00:29:18.890Z,0
2016-05-31T00:30:18.783Z,0
2016-05-31T00:31:18.958Z,0
2016-05-31T00:32:18.991Z,0
2016-05-31T00:33:19.025Z,0
2016-05-31T00:34:18.888Z,0
2016-05-31T00:35:19.063Z,0
2016-05-31T00:36:19.096Z,0
2016-05-31T00:37:19.474Z,0
2016-05-31T00:38:19.007Z,0
2016-05-31T00:39:19.011Z,0
2016-05-31T00:40:19.216Z,0
2016-05-31T00:41:19.234Z,0
2016-05-31T00:42:19.252Z,0
2016-05-31T00:43:19.287Z,0
2016-05-31T00:44:19.305Z,0
2016-05-31T00:45:19.354Z,0
2016-05-31T00:46:19.217Z,0
2016-05-31T00:47:19.391Z,0
2016-05-31T00:48:19.269Z,0
2016-05-31T00:49:19.444Z,0
2016-05-31T00:50:19.321Z,0
2016-05-31T00:51:19.198Z,0
2016-05-31T00:52:19.546Z,0
2016-05-31T00:53:19.439Z,0
2016-05-31T00:54:19.426Z,0
2016-05-31T00:55:19.616Z,0
2016-05-31T00:56:19.322Z,0
2016-05-31T00:57:19.668Z,0
2016-05-31T00:58:19.530Z,0
2016-05-31T00:59:19.720Z,0
2016-05-31T01:00:19.739Z,0
2016-05-31T01:01:19.772Z,0
2016-05-31T01:02:19.806Z,0
2016-05-31T01:18:53.477Z,0
2016-05-31T01:19:06.087Z,0
2016-05-31T01:20:05.948Z,0
2016-05-31T01:21:06.029Z,0
2016-05-31T01:22:06.017Z,0
2016-05-31T01:23:07.362Z,0
2016-05-31T01:24:06.241Z,0
2016-05-31T01:25:06.290Z,0
2016-05-31T01:26:06.121Z,0
2016-05-31T01:27:06.311Z,0
2016-05-31T01:28:06.330Z,0
2016-05-31T01:29:06.192Z,0
2016-05-31T01:30:06.382Z,0
2016-05-31T01:31:06.400Z,0
2016-05-31T01:32:06.122Z,0
2016-05-31T01:33:06.452Z,0
2016-05-31T01:34:06.487Z,0
2016-05-31T01:35:06.520Z,0
2016-05-31T01:36:06.538Z,0
2016-05-31T01:37:06.417Z,0
2016-05-31T01:38:08.357Z,0
2016-05-31T01:39:06.453Z,0
2016-05-31T01:40:06.643Z,0
2016-05-31T01:41:06.521Z,0
2016-05-31T01:42:06.695Z,0
2016-05-31T01:43:06.557Z,0
2016-05-31T01:44:06.748Z,0
2016-05-31T01:45:06.766Z,0
2016-05-31T01:46:06.799Z,0
2016-05-31T01:47:06.834Z,0
2016-05-31T01:48:06.852Z,0
2016-05-31T01:49:06.730Z,0
2016-05-31T01:50:06.904Z,0
2016-05-31T01:51:06.798Z,0
2016-05-31T01:52:06.973Z,0
2016-05-31T01:53:07.584Z,0
2016-05-31T01:54:06.853Z,0
2016-05-31T01:55:06.887Z,0
2016-05-31T01:56:06.906Z,0
2016-05-31T01:57:06.939Z,0
2016-05-31T01:58:07.114Z,0
2016-05-31T01:59:06.834Z,0
2016-05-31T02:00:07.041Z,0
2016-05-31T02:01:07.215Z,0
2016-05-31T02:02:07.218Z,0
2016-05-31T02:03:07.252Z,0
2016-05-31T02:04:07.286Z,0
2016-05-31T02:05:07.319Z,0
2016-05-31T02:06:07.183Z,0
2016-05-31T02:07:07.372Z,0
2016-05-31T02:08:07.624Z,0
2016-05-31T02:09:07.408Z,0
2016-05-31T02:10:07.427Z,0
2016-05-31T02:11:07.461Z,0
2016-05-31T02:12:07.495Z,0
2016-05-31T02:13:07.357Z,0
2016-05-31T02:14:07.563Z,0
2016-05-31T02:15:07.410Z,0
2016-05-31T02:16:07.599Z,0
2016-05-31T02:17:07.633Z,0
2016-05-31T02:18:07.652Z,0
2016-05-31T02:19:07.686Z,0
2016-05-31T02:20:07.563Z,0
2016-05-31T02:21:07.723Z,0
2016-05-31T02:22:07.756Z,0
2016-05-31T02:23:07.837Z,0
2016-05-31T02:24:07.809Z,0
2016-05-31T02:25:07.827Z,0
2016-05-31T02:26:07.877Z,0
2016-05-31T02:27:07.739Z,0
2016-05-31T02:28:07.601Z,0
2016-05-31T02:29:07.948Z,0
2016-05-31T02:30:07.809Z,0
2016-05-31T02:31:07.984Z,0
2016-05-31T02:32:08.017Z,0
2016-05-31T02:33:08.051Z,0
2016-05-31T02:34:08.086Z,0
2016-05-31T02:35:08.120Z,0
2016-05-31T02:36:08.122Z,0
2016-05-31T02:37:08.000Z,0
2016-05-31T02:38:08.189Z,0
2016-05-31T02:39:08.208Z,4
2016-05-31T02:40:08.227Z,4
2016-05-31T02:41:08.244Z,4
2016-05-31T02:42:08.122Z,0
2016-05-31T02:43:08.297Z,0
2016-05-31T02:44:08.331Z,4
2016-05-31T02:45:08.193Z,4
2016-05-31T02:46:08.383Z,4
2016-05-31T02:47:08.401Z,8
2016-05-31T02:48:08.451Z,4
2016-05-31T02:49:08.469Z,4
2016-05-31T02:50:08.488Z,8
2016-05-31T02:51:08.350Z,4
2016-05-31T02:52:08.384Z,8
2016-05-31T02:53:09.324Z,12
2016-05-31T02:54:08.592Z,12
2016-05-31T02:55:08.610Z,8
2016-05-31T02:56:08.488Z,12
2016-05-31T02:57:08.695Z,12
2016-05-31T02:58:08.712Z,16
2016-05-31T02:59:08.731Z,16
2016-05-31T03:00:08.748Z,16
2016-05-31T03:01:08.627Z,20
2016-05-31T03:02:08.801Z,20
2016-05-31T03:03:08.820Z,24
2016-05-31T03:04:08.541Z,24
2016-05-31T03:05:08.887Z,28
2016-05-31T03:06:08.750Z,28
2016-05-31T03:07:08.939Z,28
2016-05-31T03:08:08.943Z,32
2016-05-31T03:09:08.820Z,36
2016-05-31T03:10:08.995Z,36
2016-05-31T03:11:08.872Z,40
2016-05-31T03:12:08.905Z,44
2016-05-31T03:13:09.081Z,44
2016-05-31T03:14:08.958Z,44
2016-05-31T03:15:09.133Z,48
2016-05-31T03:16:09.167Z,52
2016-05-31T03:17:09.029Z,56
2016-05-31T03:18:09.047Z,56
2016-05-31T03:19:09.238Z,60
2016-05-31T03:20:09.256Z,64
2016-05-31T03:21:09.134Z,68
2016-05-31T03:22:09.152Z,68
2016-05-31T03:23:09.968Z,72
2016-05-31T03:24:09.360Z,76
2016-05-31T03:25:09.395Z,72
2016-05-31T03:26:09.460Z,72
2016-05-31T03:27:09.306Z,72
2016-05-31T03:28:09.464Z,72
2016-05-31T03:29:09.343Z,72
2016-05-31T03:30:09.517Z,72
2016-05-31T03:31:09.395Z,76
2016-05-31T03:32:09.570Z,76
2016-05-31T03:33:09.603Z,80
2016-05-31T03:34:09.622Z,80
2016-05-31T03:35:09.500Z,80
2016-05-31T03:36:09.675Z,84
2016-05-31T03:37:09.395Z,88
2016-05-31T03:38:09.773Z,92
2016-05-31T03:39:09.761Z,92
2016-05-31T03:40:09.778Z,96
2016-05-31T03:41:09.813Z,96
2016-05-31T03:42:09.830Z,100
2016-05-31T03:43:09.849Z,104
2016-05-31T03:44:09.727Z,104
2016-05-31T03:45:09.901Z,104
2016-05-31T03:46:09.780Z,100
2016-05-31T03:47:09.954Z,100
2016-05-31T03:48:09.674Z,100
2016-05-31T03:49:09.850Z,100
2016-05-31T03:50:10.040Z,104
2016-05-31T03:51:10.073Z,104
2016-05-31T03:52:10.093Z,108
2016-05-31T03:53:10.157Z,112
2016-05-31T03:54:09.988Z,116
2016-05-31T03:55:10.163Z,116
2016-05-31T03:56:10.196Z,124
2016-05-31T03:57:10.215Z,132
2016-05-31T03:58:10.234Z,144
2016-05-31T03:59:10.267Z,156
2016-05-31T04:00:10.285Z,168
2016-05-31T04:01:10.303Z,176
2016-05-31T04:02:10.198Z,188
2016-05-31T04:03:10.372Z,196
2016-05-31T04:04:10.389Z,204
2016-05-31T04:05:10.112Z,208
2016-05-31T04:06:10.442Z,208
2016-05-31T04:07:10.319Z,208
2016-05-31T04:08:10.494Z,204
2016-05-31T04:09:10.529Z,204
2016-05-31T04:10:10.547Z,208
2016-05-31T04:11:10.580Z,208
2016-05-31T04:12:10.615Z,212
2016-05-31T04:13:10.461Z,212
2016-05-31T04:14:10.666Z,212
2016-05-31T04:15:10.669Z,204
2016-05-31T04:16:10.703Z,196
2016-05-31T04:17:10.722Z,184
2016-05-31T04:18:10.755Z,172
2016-05-31T04:19:10.774Z,160
2016-05-31T04:20:10.636Z,164
2016-05-31T04:21:10.826Z,164
2016-05-31T04:22:10.876Z,168
2016-05-31T04:23:12.019Z,172
2016-05-31T04:24:10.897Z,176
2016-05-31T04:25:10.931Z,188
2016-05-31T04:26:10.949Z,196
2016-05-31T04:27:10.827Z,196
2016-05-31T04:28:10.845Z,204
2016-05-31T04:29:11.034Z,212
2016-05-31T04:30:11.069Z,232
2016-05-31T04:31:11.104Z,256
2016-05-31T04:32:11.106Z,284
2016-05-31T04:33:11.123Z,324
2016-05-31T04:34:11.159Z,356
2016-05-31T04:35:11.176Z,384
2016-05-31T04:36:11.210Z,400
2016-05-31T04:37:11.089Z,408
2016-05-31T04:38:11.122Z,416
2016-05-31T04:39:11.281Z,424
2016-05-31T04:40:11.158Z,428
2016-05-31T04:41:11.350Z,432
2016-05-31T04:42:11.367Z,436
2016-05-31T04:43:11.385Z,432
2016-05-31T04:44:11.419Z,428
2016-05-31T04:45:11.453Z,436
2016-05-31T04:46:11.456Z,440
2016-05-31T04:47:11.333Z,456
2016-05-31T04:48:11.508Z,468
2016-05-31T04:49:11.558Z,480
2016-05-31T04:50:11.560Z,488
2016-05-31T04:51:11.282Z,500
2016-05-31T04:52:11.472Z,516
2016-05-31T04:53:12.022Z,536
2016-05-31T04:54:11.680Z,552
2016-05-31T04:55:11.699Z,544
2016-05-31T04:56:11.717Z,516
2016-05-31T04:57:11.579Z,484
2016-05-31T04:58:11.770Z,448
2016-05-31T04:59:11.787Z,428
2016-05-31T05:00:11.666Z,412
2016-05-31T05:01:11.840Z,400
2016-05-31T05:02:11.717Z,388
2016-05-31T05:03:11.737Z,376
2016-05-31T05:04:11.754Z,372
2016-05-31T05:05:11.882Z,368
2016-05-31T05:06:11.978Z,364
2016-05-31T05:07:11.857Z,344
2016-05-31T05:08:12.125Z,320
2016-05-31T05:09:12.049Z,292
2016-05-31T05:10:12.083Z,268
2016-05-31T05:11:11.788Z,256
2016-05-31T05:12:11.979Z,248
2016-05-31T05:13:12.169Z,248
2016-05-31T05:14:12.094Z,248
2016-05-31T05:15:12.362Z,252
2016-05-31T05:16:12.364Z,252
2016-05-31T05:17:12.274Z,256
2016-05-31T05:18:12.291Z,260
2016-05-31T05:19:12.092Z,260
2016-05-31T05:20:12.391Z,260
2016-05-31T05:21:12.441Z,252
2016-05-31T05:22:12.459Z,248
2016-05-31T05:23:13.258Z,244
2016-05-31T05:24:12.433Z,240
2016-05-31T05:25:12.482Z,236
2016-05-31T05:26:12.485Z,232
2016-05-31T05:27:12.519Z,232
2016-05-31T05:28:12.538Z,232
2016-05-31T05:29:12.571Z,232
2016-05-31T05:30:12.527Z,232
2016-05-31T05:31:12.687Z,236
2016-05-31T05:32:12.689Z,232
2016-05-31T05:33:12.598Z,236
2016-05-31T05:34:12.601Z,236
2016-05-31T05:35:12.745Z,236
2016-05-31T05:36:12.606Z,236
2016-05-31T05:37:12.765Z,236
2016-05-31T05:38:13.205Z,240
2016-05-31T05:39:12.833Z,236
2016-05-31T05:40:12.695Z,240
2016-05-31T05:41:12.869Z,240
2016-05-31T05:42:12.904Z,240
2016-05-31T05:43:12.766Z,240
2016-05-31T05:44:12.644Z,240
2016-05-31T05:45:12.974Z,240
2016-05-31T05:46:12.992Z,240
2016-05-31T05:47:13.027Z,240
2016-05-31T05:48:13.060Z,240
2016-05-31T05:49:13.078Z,240
2016-05-31T05:50:13.096Z,244
2016-05-31T05:51:13.116Z,244
2016-05-31T05:52:13.165Z,244
2016-05-31T05:53:13.651Z,232
2016-05-31T05:54:13.327Z,232
2016-05-31T05:55:13.329Z,236
2016-05-31T05:56:13.097Z,232
2016-05-31T05:57:13.140Z,240
2016-05-31T05:58:13.420Z,244
2016-05-31T05:59:13.449Z,248
2016-05-31T06:00:13.478Z,244
2016-05-31T06:01:13.522Z,248
2016-05-31T06:02:13.609Z,252
2016-05-31T06:03:13.465Z,252
2016-05-31T06:04:13.633Z,248
2016-05-31T06:05:13.755Z,252
2016-05-31T06:06:13.783Z,252
2016-05-31T06:07:13.668Z,256
2016-05-31T06:08:13.689Z,256
2016-05-31T06:09:13.712Z,256
2016-05-31T06:10:13.859Z,256
2016-05-31T06:11:13.865Z,256
2016-05-31T06:12:13.885Z,248
2016-05-31T06:13:13.904Z,248
2016-05-31T06:14:13.925Z,244
2016-05-31T06:15:13.804Z,252
2016-05-31T06:16:13.994Z,260
2016-05-31T06:17:13.998Z,260
2016-05-31T06:18:14.048Z,256
2016-05-31T06:19:14.051Z,256
2016-05-31T06:20:14.085Z,260
2016-05-31T06:21:14.104Z,268
2016-05-31T06:22:14.139Z,280
2016-05-31T06:23:14.094Z,312
2016-05-31T06:24:14.190Z,380
2016-05-31T06:25:14.225Z,440
2016-05-31T06:26:14.087Z,484
2016-05-31T06:27:14.277Z,516
2016-05-31T06:28:14.295Z,552
2016-05-31T06:29:14.157Z,580
2016-05-31T06:30:14.348Z,572
2016-05-31T06:31:14.209Z,556
2016-05-31T06:32:14.274Z,508
2016-05-31T06:33:14.433Z,436
2016-05-31T06:34:14.468Z,372
2016-05-31T06:35:14.486Z,332
2016-05-31T06:36:14.504Z,308
2016-05-31T06:37:14.209Z,296
2016-05-31T06:38:14.557Z,284
2016-05-31T06:39:14.575Z,284
2016-05-31T06:40:14.592Z,280
2016-05-31T06:41:14.627Z,280
2016-05-31T06:42:14.661Z,284
2016-05-31T06:43:14.679Z,280
2016-05-31T06:44:14.713Z,276
2016-05-31T06:45:14.747Z,276
2016-05-31T06:46:14.749Z,276
2016-05-31T06:47:14.784Z,276
2016-05-31T06:48:14.802Z,276
2016-05-31T06:49:14.836Z,276
2016-05-31T06:50:14.855Z,276
2016-05-31T06:51:14.888Z,276
2016-05-31T06:52:14.766Z,276
2016-05-31T06:53:15.268Z,280
2016-05-31T06:54:14.990Z,280
2016-05-31T06:55:14.993Z,284
2016-05-31T06:56:15.027Z,284
2016-05-31T06:57:15.045Z,284
2016-05-31T06:58:15.079Z,288
2016-05-31T06:59:14.957Z,284
2016-05-31T07:00:14.975Z,288
2016-05-31T07:01:14.993Z,292
2016-05-31T07:02:15.168Z,292
2016-05-31T07:03:15.201Z,292
2016-05-31T07:04:15.126Z,296
2016-05-31T07:05:15.254Z,296
2016-05-31T07:06:15.272Z,296
2016-05-31T07:07:15.150Z,300
2016-05-31T07:08:15.215Z,296
2016-05-31T07:09:15.359Z,300
2016-05-31T07:10:15.376Z,304
2016-05-31T07:11:15.411Z,304
2016-05-31T07:12:15.428Z,300
2016-05-31T07:13:15.307Z,304
2016-05-31T07:14:15.481Z,304
2016-05-31T07:15:15.515Z,304
2016-05-31T07:16:15.392Z,304
2016-05-31T07:17:15.567Z,308
2016-05-31T07:18:15.601Z,308
2016-05-31T07:19:15.636Z,312
2016-05-31T07:20:15.669Z,328
2016-05-31T07:21:15.672Z,340
2016-05-31T07:22:15.549Z,332
2016-05-31T07:23:15.881Z,336
2016-05-31T07:24:15.758Z,336
2016-05-31T07:25:15.791Z,336
2016-05-31T07:26:15.810Z,340
2016-05-31T07:27:15.688Z,344
2016-05-31T07:28:15.863Z,344
2016-05-31T07:29:15.896Z,344
2016-05-31T07:30:15.759Z,344
2016-05-31T07:31:15.965Z,348
2016-05-31T07:32:15.811Z,348
2016-05-31T07:33:16.001Z,352
2016-05-31T07:34:16.035Z,356
2016-05-31T07:35:15.881Z,360
2016-05-31T07:36:16.071Z,364
2016-05-31T07:37:15.949Z,368
2016-05-31T07:38:15.999Z,372
2016-05-31T07:39:16.017Z,376
2016-05-31T07:40:16.176Z,384
2016-05-31T07:41:16.210Z,388
2016-05-31T07:42:16.244Z,392
2016-05-31T07:43:16.294Z,392
2016-05-31T07:44:16.296Z,396
2016-05-31T07:45:16.175Z,400
2016-05-31T07:46:16.349Z,404
2016-05-31T07:47:16.367Z,408
2016-05-31T07:48:16.103Z,416
2016-05-31T07:49:16.435Z,416
2016-05-31T07:50:16.438Z,424
2016-05-31T07:51:16.159Z,424
2016-05-31T07:52:16.521Z,428
2016-05-31T07:53:16.539Z,424
2016-05-31T07:54:16.401Z,432
2016-05-31T07:55:16.592Z,436
2016-05-31T07:56:16.625Z,440
2016-05-31T07:57:16.644Z,444
2016-05-31T07:58:16.505Z,448
2016-05-31T07:59:16.696Z,452
2016-05-31T08:00:16.730Z,456
2016-05-31T08:01:16.764Z,456
2016-05-31T08:02:16.766Z,460
2016-05-31T08:03:16.643Z,464
2016-05-31T08:04:16.835Z,468
2016-05-31T08:05:16.713Z,472
2016-05-31T08:06:16.902Z,484
2016-05-31T08:07:16.920Z,488
2016-05-31T08:08:17.392Z,492
2016-05-31T08:09:16.972Z,492
2016-05-31T08:10:17.023Z,500
2016-05-31T08:11:16.870Z,504
2016-05-31T08:12:17.059Z,512
2016-05-31T08:13:17.092Z,520
2016-05-31T08:14:17.128Z,528
2016-05-31T08:15:17.145Z,540
2016-05-31T08:16:17.258Z,544
2016-05-31T08:17:17.197Z,548
2016-05-31T08:18:17.216Z,548
2016-05-31T08:19:17.249Z,556
2016-05-31T08:20:17.111Z,560
2016-05-31T08:21:17.302Z,564
2016-05-31T08:22:17.274Z,576
2016-05-31T08:23:17.369Z,580
2016-05-31T08:24:17.388Z,584
2016-05-31T08:25:17.422Z,588
2016-05-31T08:26:17.456Z,592
2016-05-31T08:27:17.474Z,604
2016-05-31T08:28:17.571Z,612
2016-05-31T08:29:17.526Z,624
2016-05-31T08:30:17.561Z,628
2016-05-31T08:31:17.673Z,620
2016-05-31T08:32:17.613Z,632
2016-05-31T08:33:17.334Z,640
2016-05-31T08:34:17.681Z,636
2016-05-31T08:35:17.605Z,640
2016-05-31T08:36:17.592Z,644
2016-05-31T08:37:17.752Z,648
2016-05-31T08:38:18.863Z,652
2016-05-31T08:39:17.820Z,664
2016-05-31T08:40:17.931Z,668
2016-05-31T08:41:17.871Z,672
2016-05-31T08:42:17.921Z,680
2016-05-31T08:43:17.939Z,688
2016-05-31T08:44:17.958Z,692
2016-05-31T08:45:18.148Z,704
2016-05-31T08:46:18.166Z,712
2016-05-31T08:47:18.044Z,716
2016-05-31T08:48:18.078Z,724
2016-05-31T08:49:17.956Z,728
2016-05-31T08:50:18.145Z,736
2016-05-31T08:51:18.164Z,744
2016-05-31T08:52:18.197Z,748
2016-05-31T08:53:19.872Z,756
2016-05-31T08:54:18.188Z,760
2016-05-31T08:55:18.284Z,764
2016-05-31T08:56:18.318Z,776
2016-05-31T08:57:18.430Z,780
2016-05-31T08:58:18.371Z,788
2016-05-31T08:59:18.091Z,796
2016-05-31T09:00:18.438Z,804
2016-05-31T09:01:18.457Z,812
2016-05-31T09:02:18.365Z,824
2016-05-31T09:03:18.524Z,832
2016-05-31T09:04:18.699Z,844
2016-05-31T09:05:18.576Z,848
2016-05-31T09:06:18.548Z,856
2016-05-31T09:07:18.660Z,868
2016-05-31T09:08:18.538Z,880
2016-05-31T09:09:18.696Z,892
2016-05-31T09:10:18.574Z,900
2016-05-31T09:11:18.701Z,912
2016-05-31T09:12:18.814Z,908
2016-05-31T09:13:18.817Z,788
2016-05-31T09:14:18.945Z,776
2016-05-31T09:15:18.884Z,548
2016-05-31T09:16:18.762Z,984
2016-05-31T09:17:18.999Z,992
2016-05-31T09:18:18.815Z,1020
2016-05-31T09:19:19.052Z,1132
2016-05-31T09:20:19.023Z,1080
2016-05-31T09:21:19.057Z,1012
2016-05-31T09:22:19.076Z,1012
2016-05-31T09:23:19.687Z,1024
2016-05-31T09:24:19.237Z,1036
2016-05-31T09:25:19.208Z,1052
2016-05-31T09:26:19.305Z,1068
2016-05-31T09:27:19.260Z,1108
2016-05-31T09:28:19.280Z,1172
2016-05-31T09:29:19.297Z,1428
2016-05-31T09:30:19.035Z,1220
2016-05-31T09:31:19.052Z,1032
2016-05-31T09:32:19.384Z,1152
2016-05-31T09:33:19.276Z,1424
2016-05-31T09:34:19.311Z,1692
2016-05-31T09:35:19.595Z,1792
2016-05-31T09:36:19.518Z,1736
2016-05-31T09:37:19.632Z,1836
2016-05-31T09:38:19.447Z,1580
2016-05-31T09:39:19.621Z,1804
2016-05-31T09:40:19.702Z,1940
2016-05-31T09:41:19.517Z,1824
2016-05-31T09:42:19.567Z,1948
2016-05-31T09:43:19.819Z,1452
2016-05-31T09:44:19.462Z,1744
2016-05-31T09:45:19.809Z,1824
2016-05-31T09:46:19.843Z,1276
2016-05-31T09:47:19.877Z,1300
2016-05-31T09:48:19.989Z,1508
2016-05-31T09:49:19.836Z,1764
2016-05-31T09:50:20.136Z,2020
2016-05-31T09:51:19.934Z,2092
2016-05-31T09:52:20.000Z,2156
2016-05-31T09:53:20.283Z,2552
2016-05-31T09:54:20.099Z,2808
2016-05-31T09:55:19.977Z,2904
2016-05-31T09:56:20.214Z,2800
2016-05-31T09:57:20.200Z,2816
2016-05-31T09:58:20.235Z,2840
2016-05-31T09:59:20.252Z,3044
2016-05-31T10:00:20.194Z,3116
2016-05-31T10:01:20.321Z,3148
2016-05-31T10:02:20.355Z,3260
2016-05-31T10:03:20.388Z,3208
2016-05-31T10:04:20.407Z,3408
2016-05-31T10:05:20.471Z,3072
2016-05-31T10:06:20.491Z,2704
2016-05-31T10:07:20.352Z,2044
2016-05-31T10:08:20.949Z,1788
2016-05-31T10:09:20.701Z,1564
2016-05-31T10:10:20.611Z,1284
2016-05-31T10:11:20.645Z,1340
2016-05-31T10:12:20.616Z,1632
2016-05-31T10:13:20.743Z,1652
2016-05-31T10:14:20.746Z,1804
2016-05-31T10:15:20.717Z,2096
2016-05-31T10:16:20.190Z,2324
2016-05-31T10:17:20.879Z,2768
2016-05-31T10:18:20.882Z,2764
2016-05-31T10:19:20.916Z,2828
2016-05-31T10:20:20.935Z,2700
2016-05-31T10:21:20.984Z,2480
2016-05-31T10:22:20.939Z,2332
2016-05-31T10:23:21.693Z,2396
2016-05-31T10:24:21.102Z,2564
2016-05-31T10:25:21.197Z,2724
2016-05-31T10:26:21.310Z,3204
2016-05-31T10:27:21.266Z,3784
2016-05-31T10:28:21.159Z,3504
2016-05-31T10:29:21.240Z,3704
2016-05-31T10:30:21.133Z,3632
2016-05-31T10:31:21.261Z,3756
2016-05-31T10:32:21.248Z,3552
2016-05-31T10:33:21.485Z,3484
2016-05-31T10:34:21.582Z,3384
2016-05-31T10:35:21.381Z,3376
2016-05-31T10:36:21.524Z,3360
2016-05-31T10:37:21.558Z,3328
2016-05-31T10:38:22.421Z,3456
2016-05-31T10:39:21.657Z,3612
2016-05-31T10:40:21.660Z,3732
2016-05-31T10:41:21.663Z,3560
2016-05-31T10:42:21.696Z,3364
2016-05-31T10:43:21.731Z,3216
2016-05-31T10:44:21.765Z,3248
2016-05-31T10:45:21.798Z,3868
2016-05-31T10:46:21.692Z,4432
2016-05-31T10:47:21.710Z,4036
2016-05-31T10:48:21.900Z,5360
2016-05-31T10:49:21.998Z,5180
2016-05-31T10:50:21.968Z,4952
2016-05-31T10:51:22.003Z,4672
2016-05-31T10:52:22.036Z,4860
2016-05-31T10:53:22.225Z,4516
2016-05-31T10:54:21.964Z,3472
2016-05-31T10:55:22.138Z,3392
2016-05-31T10:56:22.172Z,3268
2016-05-31T10:57:22.331Z,3248
2016-05-31T10:58:22.255Z,2824
2016-05-31T10:59:22.383Z,3752
2016-05-31T11:00:22.402Z,3084
2016-05-31T11:01:22.451Z,3492
2016-05-31T11:02:22.485Z,3188
2016-05-31T11:03:22.425Z,3164
2016-05-31T11:04:22.459Z,2456
2016-05-31T11:05:22.493Z,1912
2016-05-31T11:06:22.527Z,1864
2016-05-31T11:07:22.560Z,1828
2016-05-31T11:08:22.736Z,3080
2016-05-31T11:09:22.629Z,2276
2016-05-31T11:10:22.350Z,2584
2016-05-31T11:11:22.540Z,2832
2016-05-31T11:12:22.731Z,4112
2016-05-31T11:13:22.779Z,4168
2016-05-31T11:14:22.815Z,3768
2016-05-31T11:15:22.676Z,3224
2016-05-31T11:16:22.726Z,3288
2016-05-31T11:17:22.901Z,3796
2016-05-31T11:18:22.793Z,3664
2016-05-31T11:19:22.812Z,3376
2016-05-31T11:20:23.033Z,3356
2016-05-31T11:21:22.895Z,3576
2016-05-31T11:22:23.086Z,3692
2016-05-31T11:23:23.432Z,3844
2016-05-31T11:24:23.263Z,3868
2016-05-31T11:25:23.266Z,4916
2016-05-31T11:26:23.237Z,4324
2016-05-31T11:27:23.271Z,3924
2016-05-31T11:28:23.305Z,3904
2016-05-31T11:29:23.433Z,4064
2016-05-31T11:30:23.435Z,4252
2016-05-31T11:31:23.453Z,4408
2016-05-31T11:32:23.455Z,4540
2016-05-31T11:33:23.475Z,4668
2016-05-31T11:34:23.524Z,4660
2016-05-31T11:35:23.558Z,3404
2016-05-31T11:36:23.685Z,2876
2016-05-31T11:37:23.626Z,2644
2016-05-31T11:38:23.378Z,3892
2016-05-31T11:39:23.693Z,3680
2016-05-31T11:40:23.572Z,3548
2016-05-31T11:41:23.605Z,3640
2016-05-31T11:42:23.811Z,3720
2016-05-31T11:43:23.690Z,3620
2016-05-31T11:44:23.895Z,3764
2016-05-31T11:45:23.929Z,3800
2016-05-31T11:46:23.963Z,3960
2016-05-31T11:47:23.825Z,4052
2016-05-31T11:48:24.030Z,4172
2016-05-31T11:49:23.908Z,4340
2016-05-31T11:50:24.098Z,4400
2016-05-31T11:51:24.242Z,4524
2016-05-31T11:52:24.073Z,4292
2016-05-31T11:53:23.997Z,4144
2016-05-31T11:54:24.265Z,4164
2016-05-31T11:55:24.346Z,4444
2016-05-31T11:56:24.161Z,4720
2016-05-31T11:57:24.367Z,5048
2016-05-31T11:58:24.495Z,4992
2016-05-31T11:59:24.528Z,4636
2016-05-31T12:00:24.547Z,4164
2016-05-31T12:01:24.580Z,3900
2016-05-31T12:02:24.536Z,3152
2016-05-31T12:03:24.681Z,2384
2016-05-31T12:04:24.605Z,4416
2016-05-31T12:05:24.655Z,4040
2016-05-31T12:06:24.626Z,3912
2016-05-31T12:07:24.628Z,3896
2016-05-31T12:08:24.507Z,3888
2016-05-31T12:09:24.791Z,3672
2016-05-31T12:10:24.840Z,3656
2016-05-31T12:11:24.983Z,3312
2016-05-31T12:12:24.767Z,1420
2016-05-31T12:13:24.801Z,1476
2016-05-31T12:14:24.835Z,1448
2016-05-31T12:15:25.150Z,1528
2016-05-31T12:16:25.168Z,1584
2016-05-31T12:17:25.031Z,1648
2016-05-31T12:18:25.314Z,1784
2016-05-31T12:19:25.145Z,1776
2016-05-31T12:20:25.195Z,1700
2016-05-31T12:21:25.182Z,1756
2016-05-31T12:22:25.373Z,1880
2016-05-31T12:23:25.640Z,2068
2016-05-31T12:24:25.424Z,2164
2016-05-31T12:25:25.317Z,2172
2016-05-31T12:26:25.430Z,2152
2016-05-31T12:27:25.479Z,1968
2016-05-31T12:28:25.513Z,1528
2016-05-31T12:29:25.406Z,1264
2016-05-31T12:30:25.722Z,1360
2016-05-31T12:31:25.630Z,1448
2016-05-31T12:32:25.524Z,1308
2016-05-31T12:33:25.729Z,1168
2016-05-31T12:34:25.591Z,1036
2016-05-31T12:35:25.797Z,916
2016-05-31T12:36:25.660Z,936
2016-05-31T12:37:25.850Z,1008
2016-05-31T12:38:26.446Z,1128
2016-05-31T12:39:26.136Z,1404
2016-05-31T12:40:26.029Z,1820
2016-05-31T12:41:26.048Z,1912
2016-05-31T12:42:25.973Z,1984
2016-05-31T12:43:26.272Z,1848
2016-05-31T12:44:26.134Z,2496
2016-05-31T12:45:26.277Z,3544
2016-05-31T12:46:26.139Z,3568
2016-05-31T12:47:26.298Z,5624
2016-05-31T12:48:26.380Z,2768
2016-05-31T12:49:26.382Z,2552
2016-05-31T12:50:26.416Z,2352
2016-05-31T12:51:26.418Z,2128
2016-05-31T12:52:26.437Z,2084
2016-05-31T12:53:26.595Z,1784
2016-05-31T12:54:26.348Z,1468
2016-05-31T12:55:26.523Z,1284
2016-05-31T12:56:26.417Z,1200
2016-05-31T12:57:26.450Z,1176
2016-05-31T12:58:26.641Z,1136
2016-05-31T12:59:26.675Z,1176
2016-05-31T13:00:26.724Z,1164
2016-05-31T13:01:26.758Z,1364
2016-05-31T13:02:26.652Z,1348
2016-05-31T13:03:26.826Z,1388
2016-05-31T13:04:26.875Z,1308
2016-05-31T13:05:26.910Z,1080
2016-05-31T13:06:26.943Z,1092
2016-05-31T13:07:26.822Z,1476
2016-05-31T13:08:26.996Z,1716
2016-05-31T13:09:26.889Z,1264
2016-05-31T13:10:27.094Z,1268
2016-05-31T13:11:27.129Z,1268
2016-05-31T13:12:27.162Z,1412
2016-05-31T13:13:27.196Z,1716
2016-05-31T13:14:27.246Z,2044
2016-05-31T13:15:27.280Z,2348
2016-05-31T13:16:27.157Z,2224
2016-05-31T13:17:27.348Z,2180
2016-05-31T13:18:27.241Z,1908
2016-05-31T13:19:27.431Z,1572
2016-05-31T13:20:27.481Z,1380
2016-05-31T13:21:27.499Z,1348
2016-05-31T13:22:27.549Z,1564
2016-05-31T13:23:27.989Z,1964
2016-05-31T13:24:27.617Z,2208
2016-05-31T13:25:27.650Z,1960
2016-05-31T13:26:27.685Z,1884
2016-05-31T13:27:27.562Z,1964
2016-05-31T13:28:27.627Z,2000
2016-05-31T13:29:27.818Z,1968
2016-05-31T13:30:27.680Z,4692
2016-05-31T13:31:27.729Z,5292
2016-05-31T13:32:27.858Z,5320
2016-05-31T13:33:28.047Z,4896
2016-05-31T13:34:27.925Z,5372
2016-05-31T13:35:27.880Z,5416
2016-05-31T13:36:28.133Z,5520
2016-05-31T13:37:28.699Z,5688
2016-05-31T13:38:28.154Z,5908
2016-05-31T13:39:28.282Z,5840
2016-05-31T13:40:27.894Z,5804
2016-05-31T13:41:28.334Z,5804
2016-05-31T13:42:28.306Z,5552
2016-05-31T13:43:28.371Z,5480
2016-05-31T13:44:28.358Z,5452
2016-05-31T13:45:28.408Z,5472
2016-05-31T13:46:28.426Z,5544
2016-05-31T13:47:28.475Z,5676
2016-05-31T13:48:28.509Z,5456
2016-05-31T13:49:28.091Z,5712
2016-05-31T13:50:28.671Z,5664
2016-05-31T13:51:28.612Z,5776
2016-05-31T13:52:28.661Z,5848
2016-05-31T13:53:28.710Z,6164
2016-05-31T13:54:28.667Z,2512
2016-05-31T13:55:28.778Z,2028
2016-05-31T13:56:28.812Z,1844
2016-05-31T13:57:28.846Z,1668
2016-05-31T13:58:28.723Z,1596
2016-05-31T13:59:28.851Z,1496
2016-05-31T14:00:28.807Z,1388
2016-05-31T14:01:28.998Z,1176
2016-05-31T14:02:28.875Z,1060
2016-05-31T14:03:29.080Z,980